createdAt,value
2019-02-09T00:00:49.276Z,81.56
2019-02-09T00:03:17.897Z,82.09
2019-02-09T00:05:46.508Z,82.46
2019-02-09T00:08:15.090Z,83.59
2019-02-09T00:10:43.701Z,83.38
2019-02-09T00:13:12.323Z,83.75
2019-02-09T00:15:42.476Z,84.09
2019-02-09T00:18:11.147Z,84.09
2019-02-09T00:20:39.819Z,83.47
2019-02-09T00:23:09.057Z,79.52
2019-02-09T00:25:37.642Z,76.04
2019-02-09T00:28:06.245Z,74.48
2019-02-09T00:30:34.834Z,73.44
2019-02-09T00:33:03.402Z,73.24
2019-02-09T00:35:32.049Z,75.39
2019-02-09T00:38:00.662Z,74.10
2019-02-09T00:40:30.133Z,73.07
2019-02-09T00:42:58.735Z,73.46
2019-02-09T00:45:28.088Z,72.61
2019-02-09T00:47:56.709Z,74.33
2019-02-09T00:50:25.285Z,74.47
2019-02-09T00:52:53.870Z,73.34
2019-02-09T00:55:25.609Z,74.39
2019-02-09T00:57:54.198Z,75.44
2019-02-09T01:00:31.661Z,74.93
2019-02-09T01:03:00.539Z,75.65
2019-02-09T01:05:34.346Z,75.21
2019-02-09T01:08:02.986Z,73.43
2019-02-09T01:10:31.757Z,73.43
2019-02-09T01:13:00.543Z,73.13
2019-02-09T01:15:29.161Z,73.76
2019-02-09T01:17:57.743Z,74.76
2019-02-09T01:20:28.281Z,75.98
2019-02-09T01:22:58.720Z,77.60
2019-02-09T01:25:27.362Z,78.50
2019-02-09T01:27:55.978Z,79.38
2019-02-09T01:30:26.715Z,78.67
2019-02-09T01:32:55.294Z,78.96
2019-02-09T01:35:23.877Z,78.18
2019-02-09T01:37:52.861Z,77.67
2019-02-09T01:40:24.713Z,79.55
2019-02-09T01:42:53.328Z,79.89
2019-02-09T01:45:24.427Z,79.88
2019-02-09T01:47:53.015Z,79.83
2019-02-09T01:50:22.991Z,80.51
2019-02-09T01:52:51.580Z,80.70
2019-02-09T01:55:20.592Z,80.63
2019-02-09T01:57:49.555Z,79.79
2019-02-09T02:00:26.547Z,79.09
2019-02-09T02:02:55.272Z,79.13
2019-02-09T02:05:25.156Z,78.71
2019-02-09T02:07:53.836Z,78.71
2019-02-09T02:10:30.413Z,78.59
2019-02-09T02:12:58.991Z,75.53
2019-02-09T02:15:28.301Z,76.90
2019-02-09T02:17:56.922Z,77.69
2019-02-09T02:20:32.940Z,76.42
2019-02-09T02:23:01.517Z,77.01
2019-02-09T02:25:30.126Z,77.50
2019-02-09T02:27:58.707Z,78.18
2019-02-09T02:30:29.392Z,78.83
2019-02-09T02:32:58.016Z,79.26
2019-02-09T02:35:26.645Z,79.69
2019-02-09T02:37:55.202Z,79.80
2019-02-09T02:40:24.082Z,79.00
2019-02-09T02:42:52.667Z,79.73
2019-02-09T02:45:22.724Z,78.35
2019-02-09T02:47:51.352Z,77.48
2019-02-09T02:50:21.330Z,77.74
2019-02-09T02:52:50.008Z,79.46
2019-02-09T02:55:23.863Z,79.71
2019-02-09T02:57:52.845Z,78.31
2019-02-09T03:00:32.276Z,77.84
2019-02-09T03:02:57.355Z,77.23
2019-02-09T03:05:26.029Z,77.06
2019-02-09T03:07:55.008Z,76.41
2019-02-09T03:10:23.593Z,75.93
2019-02-09T03:12:52.271Z,77.09
2019-02-09T03:15:22.752Z,76.07
2019-02-09T03:17:51.329Z,76.59
2019-02-09T03:20:21.106Z,76.39
2019-02-09T03:22:49.694Z,76.76
2019-02-09T03:25:20.935Z,74.89
2019-02-09T03:27:49.525Z,75.98
2019-02-09T03:30:19.895Z,76.04
2019-02-09T03:32:48.489Z,74.90
2019-02-09T03:35:17.932Z,74.34
2019-02-09T03:37:46.621Z,74.40
2019-02-09T03:40:17.665Z,74.19
2019-02-09T03:42:46.239Z,73.98
2019-02-09T03:45:23.074Z,73.15
2019-02-09T03:47:51.886Z,73.97
2019-02-09T03:50:23.624Z,74.46
2019-02-09T03:52:52.207Z,75.07
2019-02-09T03:55:20.831Z,76.93
2019-02-09T03:57:49.407Z,76.54
2019-02-09T04:00:23.790Z,78.02
2019-02-09T04:02:52.381Z,77.72
2019-02-09T04:05:21.005Z,77.97
2019-02-09T04:07:49.626Z,75.12
2019-02-09T04:10:23.200Z,77.71
2019-02-09T04:12:51.791Z,77.71
2019-02-09T04:15:23.484Z,76.95
2019-02-09T04:17:52.059Z,77.28
2019-02-09T04:20:22.152Z,77.25
2019-02-09T04:22:50.737Z,76.12
2019-02-09T04:25:20.611Z,76.62
2019-02-09T04:27:49.194Z,75.69
2019-02-09T04:30:26.790Z,74.90
2019-02-09T04:32:55.371Z,75.05
2019-02-09T04:35:24.077Z,75.35
2019-02-09T04:37:52.761Z,75.54
2019-02-09T04:40:26.517Z,76.50
2019-02-09T04:42:55.097Z,76.54
2019-02-09T04:45:24.635Z,75.84
2019-02-09T04:47:53.266Z,74.61
2019-02-09T04:50:21.843Z,74.56
2019-02-09T04:52:50.470Z,75.67
2019-02-09T04:55:27.022Z,75.74
2019-02-09T04:57:55.600Z,75.46
2019-02-09T05:00:29.731Z,75.86
2019-02-09T05:02:58.310Z,75.19
2019-02-09T05:05:27.091Z,75.46
2019-02-09T05:07:55.666Z,74.92
2019-02-09T05:10:25.321Z,74.68
2019-02-09T05:12:53.894Z,75.03
2019-02-09T05:15:22.735Z,74.75
2019-02-09T05:17:51.299Z,76.15
2019-02-09T05:20:21.479Z,76.05
2019-02-09T05:22:50.063Z,76.48
2019-02-09T05:25:18.692Z,76.79
2019-02-09T05:27:47.268Z,76.70
2019-02-09T05:30:21.645Z,75.73
2019-02-09T05:32:50.227Z,75.41
2019-02-09T05:35:18.868Z,74.84
2019-02-09T05:37:47.468Z,74.69
2019-02-09T05:40:23.668Z,74.92
2019-02-09T05:42:52.247Z,75.60
2019-02-09T05:45:22.826Z,75.71
2019-02-09T05:47:51.406Z,76.25
2019-02-09T05:50:20.512Z,76.26
2019-02-09T05:52:49.068Z,76.47
2019-02-09T05:55:18.482Z,76.53
2019-02-09T05:57:47.132Z,76.11
2019-02-09T06:00:20.475Z,76.48
2019-02-09T06:02:49.055Z,77.26
2019-02-09T06:05:17.751Z,77.35
2019-02-09T06:07:46.332Z,76.76
2019-02-09T06:10:17.872Z,75.97
2019-02-09T06:12:46.846Z,75.56
2019-02-09T06:15:23.527Z,76.37
2019-02-09T06:17:52.195Z,76.58
2019-02-09T06:20:25.519Z,77.35
2019-02-09T06:22:54.189Z,76.83
2019-02-09T06:25:22.907Z,78.55
2019-02-09T06:27:51.486Z,78.41
2019-02-09T06:30:28.945Z,77.95
2019-02-09T06:32:58.016Z,77.74
2019-02-09T06:35:26.703Z,77.35
2019-02-09T06:37:55.385Z,77.27
2019-02-09T06:40:25.026Z,77.58
2019-02-09T06:42:53.605Z,77.15
2019-02-09T06:45:24.089Z,77.01
2019-02-09T06:47:52.703Z,77.55
2019-02-09T06:50:30.572Z,77.10
2019-02-09T06:52:59.388Z,77.05
2019-02-09T06:55:28.030Z,77.25
2019-02-09T06:57:56.620Z,77.07
2019-02-09T07:00:28.024Z,77.12
2019-02-09T07:02:56.717Z,76.86
2019-02-09T07:05:25.349Z,76.73
2019-02-09T07:07:53.933Z,77.46
2019-02-09T07:10:25.913Z,77.11
2019-02-09T07:12:54.493Z,76.74
2019-02-09T07:15:28.272Z,77.28
2019-02-09T07:17:57.476Z,77.75
2019-02-09T07:20:26.133Z,77.95
2019-02-09T07:22:55.130Z,77.77
2019-02-09T07:25:23.740Z,77.71
2019-02-09T07:27:52.345Z,78.13
2019-02-09T07:30:29.066Z,78.58
2019-02-09T07:32:57.781Z,78.12
2019-02-09T07:35:26.472Z,78.50
2019-02-09T07:37:55.060Z,78.73
2019-02-09T07:40:24.838Z,77.94
2019-02-09T07:42:53.528Z,78.09
2019-02-09T07:45:26.523Z,78.40
2019-02-09T07:47:55.106Z,78.24
2019-02-09T07:50:25.434Z,77.96
2019-02-09T07:52:54.396Z,78.60
2019-02-09T07:55:23.281Z,78.01
2019-02-09T07:57:51.910Z,77.72
2019-02-09T08:00:25.087Z,78.30
2019-02-09T08:02:53.667Z,77.50
2019-02-09T08:05:22.477Z,78.14
2019-02-09T08:07:51.160Z,77.56
2019-02-09T08:10:31.563Z,77.29
2019-02-09T08:13:00.840Z,77.73
2019-02-09T08:15:33.223Z,77.55
2019-02-09T08:18:02.006Z,78.45
2019-02-09T08:20:31.682Z,79.24
2019-02-09T08:23:05.614Z,80.09
2019-02-09T08:25:36.406Z,79.10
2019-02-09T08:28:06.378Z,79.53
2019-02-09T08:30:46.115Z,80.05
2019-02-09T08:33:14.694Z,79.28
2019-02-09T08:35:43.299Z,79.02
2019-02-09T08:38:12.770Z,78.89
2019-02-09T08:40:41.354Z,78.72
2019-02-09T08:43:10.571Z,77.93
2019-02-09T08:45:39.163Z,77.77
2019-02-09T08:48:08.270Z,77.89
2019-02-09T08:50:39.803Z,77.73
2019-02-09T08:53:09.126Z,77.47
2019-02-09T08:55:37.747Z,77.76
2019-02-09T08:58:07.273Z,78.02
2019-02-09T09:00:36.857Z,77.29
2019-02-09T09:03:05.561Z,77.43
2019-02-09T09:05:34.280Z,77.83
2019-02-09T09:08:02.866Z,78.17
2019-02-09T09:10:32.216Z,78.43
2019-02-09T09:13:01.478Z,78.73
2019-02-09T09:15:45.084Z,78.95
2019-02-09T09:18:13.667Z,79.12
2019-02-09T09:20:45.210Z,79.23
2019-02-09T09:23:13.878Z,78.71
2019-02-09T09:25:42.507Z,78.72
2019-02-09T09:28:11.876Z,78.52
2019-02-09T09:30:40.457Z,78.92
2019-02-09T09:33:09.439Z,79.04
2019-02-09T09:35:38.067Z,79.55
2019-02-09T09:38:06.648Z,79.77
2019-02-09T09:40:41.050Z,79.67
2019-02-09T09:43:10.779Z,79.43
2019-02-09T09:45:41.104Z,79.19
2019-02-09T09:48:12.730Z,79.52
2019-02-09T09:50:41.291Z,79.48
2019-02-09T09:53:10.840Z,78.85
2019-02-09T09:55:39.438Z,78.40
2019-02-09T09:58:08.900Z,79.02
2019-02-09T10:00:37.487Z,78.66
2019-02-09T10:03:06.055Z,77.98
2019-02-09T10:05:34.693Z,78.12
2019-02-09T10:08:03.278Z,77.78
2019-02-09T10:10:31.862Z,77.77
2019-02-09T10:13:00.444Z,77.00
2019-02-09T10:15:29.368Z,76.23
2019-02-09T10:17:57.953Z,76.37
2019-02-09T10:20:27.640Z,76.53
2019-02-09T10:22:56.223Z,75.36
2019-02-09T10:25:24.802Z,75.64
2019-02-09T10:27:55.122Z,75.89
2019-02-09T10:30:34.329Z,75.02
2019-02-09T10:33:02.917Z,75.51
2019-02-09T10:35:31.538Z,74.94
2019-02-09T10:38:00.112Z,75.73
2019-02-09T10:40:30.606Z,75.51
2019-02-09T10:42:59.186Z,76.10
2019-02-09T10:45:29.400Z,76.02
2019-02-09T10:47:57.983Z,75.58
2019-02-09T10:50:32.771Z,76.02
2019-02-09T10:53:01.349Z,75.41
2019-02-09T10:55:29.939Z,74.86
2019-02-09T10:57:58.523Z,75.21
2019-02-09T11:00:39.134Z,75.27
2019-02-09T11:03:08.602Z,74.07
2019-02-09T11:05:37.193Z,74.61
2019-02-09T11:08:06.167Z,74.18
2019-02-09T11:10:35.043Z,74.16
2019-02-09T11:13:03.623Z,73.79
2019-02-09T11:15:32.222Z,74.03
2019-02-09T11:18:00.808Z,73.88
2019-02-09T11:20:29.496Z,73.86
2019-02-09T11:22:58.074Z,74.02
2019-02-09T11:25:26.656Z,73.71
2019-02-09T11:27:55.238Z,73.27
2019-02-09T11:30:25.980Z,73.91
2019-02-09T11:33:01.553Z,72.50
2019-02-09T11:35:24.889Z,72.33
2019-02-09T11:37:53.472Z,71.97
2019-02-09T11:40:30.891Z,71.57
2019-02-09T11:43:00.275Z,71.36
2019-02-09T11:45:30.357Z,71.26
2019-02-09T11:47:58.940Z,69.81
2019-02-09T11:50:27.539Z,69.82
2019-02-09T11:52:56.118Z,70.53
2019-02-09T11:55:24.707Z,69.43
2019-02-09T11:57:53.293Z,68.55
2019-02-09T12:00:30.013Z,69.07
2019-02-09T12:03:03.852Z,69.82
2019-02-09T12:05:28.962Z,68.29
2019-02-09T12:07:57.548Z,69.26
2019-02-09T12:10:30.069Z,68.19
2019-02-09T12:12:58.679Z,68.83
2019-02-09T12:15:33.510Z,68.51
2019-02-09T12:18:02.209Z,67.83
2019-02-09T12:20:32.556Z,67.95
2019-02-09T12:23:01.756Z,67.64
2019-02-09T12:25:32.661Z,67.82
2019-02-09T12:28:01.596Z,67.57
2019-02-09T12:30:33.308Z,66.25
2019-02-09T12:33:02.341Z,67.11
2019-02-09T12:35:33.480Z,67.60
2019-02-09T12:38:02.636Z,67.02
2019-02-09T12:40:33.812Z,65.81
2019-02-09T12:43:03.036Z,64.62
2019-02-09T12:45:40.326Z,65.54
2019-02-09T12:48:11.399Z,62.26
2019-02-09T12:50:40.574Z,61.37
2019-02-09T12:53:10.767Z,61.20
2019-02-09T12:55:39.909Z,62.09
2019-02-09T12:58:09.379Z,62.15
2019-02-09T13:00:39.825Z,61.92
2019-02-09T13:03:30.954Z,61.58
2019-02-09T13:05:55.217Z,60.50
2019-02-09T13:08:24.401Z,60.85
2019-02-09T13:10:53.485Z,61.83
2019-02-09T13:13:22.573Z,60.20
2019-02-09T13:15:52.315Z,61.04
2019-02-09T13:18:21.996Z,60.49
2019-02-09T13:20:51.141Z,61.21
2019-02-09T13:23:20.370Z,61.95
2019-02-09T13:25:49.752Z,60.99
2019-02-09T13:28:19.276Z,61.68
2019-02-09T13:30:48.595Z,61.59
2019-02-09T13:33:17.795Z,62.67
2019-02-09T13:35:47.072Z,61.63
2019-02-09T13:38:19.279Z,62.87
2019-02-09T13:40:48.756Z,62.01
2019-02-09T13:43:17.985Z,61.50
2019-02-09T13:45:49.725Z,62.18
2019-02-09T13:48:18.979Z,62.08
2019-02-09T13:50:47.874Z,61.80
2019-02-09T13:53:16.537Z,61.11
2019-02-09T13:55:45.181Z,61.11
2019-02-09T13:58:13.780Z,61.21
2019-02-09T14:00:42.358Z,61.66
2019-02-09T14:03:11.164Z,61.96
2019-02-09T14:05:40.060Z,61.51
2019-02-09T14:08:09.185Z,62.93
2019-02-09T14:10:37.769Z,63.04
2019-02-09T14:13:14.024Z,63.29
2019-02-09T14:15:38.360Z,63.48
2019-02-09T14:18:09.987Z,62.96
2019-02-09T14:20:38.568Z,62.45
2019-02-09T14:23:07.508Z,62.09
2019-02-09T14:25:36.116Z,62.43
2019-02-09T14:28:05.811Z,62.44
2019-02-09T14:30:36.741Z,63.15
2019-02-09T14:33:07.392Z,61.78
2019-02-09T14:35:36.091Z,61.55
2019-02-09T14:38:04.678Z,60.51
2019-02-09T14:40:34.169Z,61.47
2019-02-09T14:43:03.194Z,59.71
2019-02-09T14:45:34.533Z,59.37
2019-02-09T14:48:03.113Z,58.31
2019-02-09T14:50:31.695Z,57.86
2019-02-09T14:53:00.276Z,58.74
2019-02-09T14:55:34.257Z,57.05
2019-02-09T14:58:02.845Z,58.06
2019-02-09T15:00:46.066Z,57.85
2019-02-09T15:03:15.247Z,59.01
2019-02-09T15:05:43.869Z,59.89
2019-02-09T15:08:12.461Z,60.05
2019-02-09T15:10:41.046Z,60.13
2019-02-09T15:13:12.214Z,59.11
2019-02-09T15:15:49.734Z,59.08
2019-02-09T15:18:18.412Z,58.21
2019-02-09T15:21:02.277Z,58.32
2019-02-09T15:23:30.863Z,59.20
2019-02-09T15:25:59.480Z,57.56
2019-02-09T15:28:28.119Z,58.16
2019-02-09T15:30:56.692Z,58.01
2019-02-09T15:33:25.278Z,56.64
2019-02-09T15:35:53.910Z,58.57
2019-02-09T15:38:22.556Z,58.58
2019-02-09T15:40:51.180Z,59.35
2019-02-09T15:43:19.762Z,59.58
2019-02-09T15:45:48.521Z,59.39
2019-02-09T15:48:17.106Z,59.82
2019-02-09T15:50:45.685Z,61.51
2019-02-09T15:53:14.271Z,60.77
2019-02-09T15:55:42.889Z,60.69
2019-02-09T15:58:11.913Z,60.77
2019-02-09T16:00:40.498Z,61.22
2019-02-09T16:03:09.522Z,61.84
2019-02-09T16:05:38.150Z,61.85
2019-02-09T16:08:07.223Z,62.19
2019-02-09T16:10:37.282Z,61.86
2019-02-09T16:13:06.063Z,62.36
2019-02-09T16:15:34.716Z,63.79
2019-02-09T16:18:03.302Z,64.15
2019-02-09T16:20:33.823Z,64.26
2019-02-09T16:23:02.412Z,64.32
2019-02-09T16:25:31.021Z,64.17
2019-02-09T16:27:59.605Z,64.16
2019-02-09T16:30:31.307Z,64.22
2019-02-09T16:32:59.883Z,64.79
2019-02-09T16:35:29.661Z,66.31
2019-02-09T16:37:58.247Z,66.87
2019-02-09T16:40:34.262Z,66.97
2019-02-09T16:43:02.907Z,67.03
2019-02-09T16:45:40.781Z,68.40
2019-02-09T16:48:11.391Z,69.07
2019-02-09T16:50:39.966Z,69.35
2019-02-09T16:53:10.794Z,68.87
2019-02-09T16:55:39.427Z,69.09
2019-02-09T16:58:10.603Z,69.51
2019-02-09T17:00:45.664Z,69.74
2019-02-09T17:03:14.347Z,69.52
2019-02-09T17:05:42.973Z,69.60
2019-02-09T17:08:14.878Z,69.37
2019-02-09T17:10:43.464Z,69.23
2019-02-09T17:13:12.046Z,69.54
2019-02-09T17:15:40.666Z,68.87
2019-02-09T17:18:09.939Z,69.34
2019-02-09T17:20:38.518Z,69.54
2019-02-09T17:23:07.595Z,70.04
2019-02-09T17:25:37.297Z,70.60
2019-02-09T17:28:05.926Z,71.10
2019-02-09T17:30:36.101Z,71.91
2019-02-09T17:33:05.032Z,72.05
2019-02-09T17:35:33.663Z,71.85
2019-02-09T17:38:02.247Z,72.35
2019-02-09T17:40:33.955Z,72.47
2019-02-09T17:43:02.543Z,72.77
2019-02-09T17:45:43.208Z,72.24
2019-02-09T17:48:12.499Z,72.24
2019-02-09T17:50:41.082Z,72.02
2019-02-09T17:53:10.476Z,72.92
2019-02-09T17:55:39.051Z,73.21
2019-02-09T17:58:08.760Z,74.41
2019-02-09T18:00:38.902Z,74.80
2019-02-09T18:03:07.935Z,74.62
2019-02-09T18:05:36.532Z,75.19
2019-02-09T18:08:06.317Z,75.14
2019-02-09T18:10:35.001Z,75.43
2019-02-09T18:13:03.589Z,75.52
2019-02-09T18:15:32.170Z,74.76
2019-02-09T18:18:00.755Z,74.17
2019-02-09T18:20:29.343Z,73.56
2019-02-09T18:22:57.931Z,72.85
2019-02-09T18:25:26.535Z,72.69
2019-02-09T18:27:55.155Z,73.48
2019-02-09T18:30:31.121Z,73.03
2019-02-09T18:32:59.704Z,73.02
2019-02-09T18:35:28.353Z,73.50
2019-02-09T18:37:56.938Z,73.91
2019-02-09T18:40:26.521Z,73.70
2019-02-09T18:42:55.103Z,73.87
2019-02-09T18:45:26.367Z,74.50
2019-02-09T18:47:54.958Z,74.15
2019-02-09T18:50:28.068Z,74.46
2019-02-09T18:52:57.289Z,74.79
2019-02-09T18:55:28.057Z,75.15
2019-02-09T18:57:56.625Z,75.25
2019-02-09T19:00:37.284Z,75.64
2019-02-09T19:03:23.577Z,75.14
2019-02-09T19:05:37.204Z,75.28
2019-02-09T19:08:06.579Z,75.34
2019-02-09T19:10:35.158Z,75.98
2019-02-09T19:13:03.737Z,75.87
2019-02-09T19:15:32.320Z,75.55
2019-02-09T19:18:01.046Z,75.38
2019-02-09T19:20:31.829Z,75.27
2019-02-09T19:23:00.597Z,74.67
2019-02-09T19:25:29.217Z,74.84
2019-02-09T19:27:57.797Z,74.71
2019-02-09T19:30:27.366Z,75.49
2019-02-09T19:32:55.947Z,75.97
2019-02-09T19:35:24.572Z,76.21
2019-02-09T19:37:54.020Z,75.55
2019-02-09T19:40:26.734Z,75.31
2019-02-09T19:42:55.321Z,75.28
2019-02-09T19:45:38.821Z,75.51
2019-02-09T19:48:08.108Z,74.88
2019-02-09T19:50:36.692Z,74.10
2019-02-09T19:53:05.571Z,74.67
2019-02-09T19:55:35.641Z,75.36
2019-02-09T19:58:05.247Z,75.12
2019-02-09T20:00:48.496Z,76.03
2019-02-09T20:03:17.081Z,75.81
2019-02-09T20:05:45.676Z,76.04
2019-02-09T20:08:14.256Z,76.50
2019-02-09T20:10:43.637Z,76.73
2019-02-09T20:13:13.218Z,76.85
2019-02-09T20:15:42.131Z,77.07
2019-02-09T20:18:11.440Z,77.64
2019-02-09T20:20:46.970Z,77.35
2019-02-09T20:23:10.862Z,77.04
2019-02-09T20:25:39.512Z,77.31
2019-02-09T20:28:08.474Z,77.03
2019-02-09T20:30:39.292Z,76.51
2019-02-09T20:33:07.891Z,76.59
2019-02-09T20:35:36.462Z,76.45
2019-02-09T20:38:06.745Z,76.64
2019-02-09T20:40:47.767Z,77.72
2019-02-09T20:43:21.541Z,77.87
2019-02-09T20:45:50.155Z,78.18
2019-02-09T20:48:18.745Z,77.84
2019-02-09T20:50:47.330Z,77.85
2019-02-09T20:53:15.915Z,77.50
2019-02-09T20:55:44.596Z,76.73
2019-02-09T20:58:13.514Z,75.95
2019-02-09T21:00:42.169Z,75.97
2019-02-09T21:03:11.292Z,75.66
2019-02-09T21:05:39.866Z,75.79
2019-02-09T21:08:08.742Z,75.39
2019-02-09T21:10:39.917Z,75.09
2019-02-09T21:13:09.448Z,74.36
2019-02-09T21:15:41.021Z,74.72
2019-02-09T21:18:09.784Z,74.15
2019-02-09T21:20:38.366Z,74.35
2019-02-09T21:23:07.588Z,74.81
2019-02-09T21:25:38.958Z,74.81
2019-02-09T21:28:08.392Z,75.14
2019-02-09T21:30:36.965Z,75.70
2019-02-09T21:33:05.845Z,76.36
2019-02-09T21:35:34.480Z,76.71
2019-02-09T21:38:03.055Z,76.34
2019-02-09T21:40:34.391Z,76.65
2019-02-09T21:43:02.974Z,77.06
2019-02-09T21:45:31.542Z,77.03
2019-02-09T21:48:00.119Z,77.10
2019-02-09T21:50:33.831Z,77.21
2019-02-09T21:53:02.417Z,76.90
2019-02-09T21:55:31.010Z,76.69
2019-02-09T21:57:59.593Z,76.38
2019-02-09T22:00:35.778Z,76.02
2019-02-09T22:03:05.801Z,75.46
2019-02-09T22:05:34.455Z,75.60
2019-02-09T22:08:03.030Z,74.88
2019-02-09T22:10:34.014Z,75.17
2019-02-09T22:13:02.999Z,75.29
2019-02-09T22:15:38.385Z,75.36
2019-02-09T22:18:03.049Z,75.66
2019-02-09T22:20:31.668Z,75.86
2019-02-09T22:23:00.336Z,75.85
2019-02-09T22:25:29.878Z,75.44
2019-02-09T22:27:58.491Z,75.85
2019-02-09T22:30:28.883Z,76.72
2019-02-09T22:32:57.824Z,76.37
2019-02-09T22:35:26.463Z,76.43
2019-02-09T22:37:55.108Z,75.98
2019-02-09T22:40:29.082Z,76.02
2019-02-09T22:42:57.684Z,76.39
2019-02-09T22:45:27.220Z,76.58
2019-02-09T22:47:56.608Z,75.77
2019-02-09T22:50:33.993Z,75.67
2019-02-09T22:53:02.590Z,76.22
2019-02-09T22:55:31.199Z,76.26
2019-02-09T22:57:59.785Z,75.92
2019-02-09T23:00:41.727Z,76.10
2019-02-09T23:03:11.066Z,76.66
2019-02-09T23:06:08.133Z,76.86
2019-02-09T23:08:36.649Z,76.80
2019-02-09T23:11:05.274Z,77.08
2019-02-09T23:13:33.852Z,76.47
2019-02-09T23:16:02.472Z,76.40
2019-02-09T23:18:31.050Z,77.21
2019-02-09T23:20:59.626Z,76.32
2019-02-09T23:23:28.217Z,76.46
2019-02-09T23:25:56.806Z,77.00
2019-02-09T23:28:25.389Z,77.64
2019-02-09T23:30:53.970Z,77.71
2019-02-09T23:33:23.186Z,77.00
2019-02-09T23:35:51.961Z,76.61
2019-02-09T23:38:20.549Z,76.57
2019-02-09T23:40:49.166Z,77.26
2019-02-09T23:43:17.746Z,76.24
2019-02-09T23:45:46.323Z,76.19
2019-02-09T23:48:14.906Z,76.32
2019-02-09T23:50:46.263Z,75.77
2019-02-09T23:53:14.842Z,74.86
2019-02-09T23:55:43.421Z,75.34
2019-02-09T23:58:12.000Z,76.01
